Papere Vagabonde

Aviosuperficie Caposile LIKI

Pista 04


Pista 22

Le immagini vengono aggiornate ogni minuto
Cliccare sull'immagine per l'ingrandimento.

METAR LIPZ

LIPZ 241950Z VRB01KT 2000 -RA BR SCT010 SCT020 14/13 Q1015 NOSIG

TAF LIPZ 241700Z 2418/2524 VRB05KT 4000 BR SCT020
  PROB40
  TEMPO 2418/2422 SHRA
  TEMPO 2502/2507 1200 BCFG BKN003
  BECMG 2508/2510 6000 SCT020




Mappa Fronti